Please enter the email address for your account. A verification code will be sent to you. Once you have received the verification code, you will be able to choose a new password for your account.

METAR TAF

[Source: ADDS]
METAR
LFCR 230300Z AUTO VRB02KT 9999 OVC004 12/12 Q1019 TEMPO 0700 FG VV/// =
AMD LFCR 230259Z 2302/2324 28004KT 9999 BKN006 PROB40 TEMPO 2303/2306 1200 BR BKN003 PROB30 TEMPO 2303/2306 0700 FG VV/// BECMG 2310/2312 CAVOK LFBA 230300Z AUTO 10003KT 0400 0350 R29/0400N FG VV/// 12/11 Q1018 =
LFSL 230300Z AUTO 13003KT 110V170 0350 0300 R29/0350N FG VV/// 13/13 Q1018 =
LFSL 230200Z 2303/2312 VRB02KT 0400 FG VV/// PROB30 TEMPO 2303/2306 0100 BECMG 2306/2308 3000 BR SCT003 BECMG 2308/2309 CAVOK LFLW 230230Z AUTO 00000KT 9000 BKN008 OVC015 11/11 Q1019 =
TAF
AMD LFCR 230259Z 2302/2324 28004KT 9999 BKN006 PROB40 TEMPO 2303/2306 1200 BR BKN003 PROB30 TEMPO 2303/2306 0700 FG VV/// BECMG 2310/2312 CAVOK =
LFSL 230200Z 2303/2312 VRB02KT 0400 FG VV/// PROB30 TEMPO 2303/2306 0100 BECMG 2306/2308 3000 BR SCT003 BECMG 2308/2309 CAVOK =
SR / SS: 05:42 / 17:51 UTC (LFCC 2019-09-23)